Time;durP1;ratioP1;P1;durP2;ratioP2;P2;SDS_P1;SDS_P2;PMS_P1;PMS_P2;Temp;Humidity;BMP_temperature;BMP_pressure;BME280_temperature;BME280_humidity;BME280_pressure;Samples;Min_cycle;Max_cycle;Signal;HPM_P1;HPM_P2
2020/12/01 00:00:12;;;;;;;6.95;1.50;;;23.90;15.20;;;;;;5107408;28;20112;-62
2020/12/01 00:02:39;;;;;;;4.90;1.40;;;23.80;15.80;;;;;;5105886;28;20072;-62
2020/12/01 00:05:06;;;;;;;5.05;1.52;;;23.70;16.00;;;;;;5109600;28;20152;-63
2020/12/01 00:07:32;;;;;;;5.63;1.73;;;23.60;16.50;;;;;;5109261;28;20083;-62
2020/12/01 00:09:59;;;;;;;6.40;2.30;;;23.50;16.80;;;;;;5089237;28;21022;-62
2020/12/01 00:12:25;;;;;;;13.10;1.92;;;23.40;17.00;;;;;;5108868;28;20409;-61
2020/12/01 00:14:52;;;;;;;7.68;1.83;;;23.30;17.10;;;;;;5110563;28;20081;-60
2020/12/01 00:17:18;;;;;;;12.57;1.90;;;23.20;17.30;;;;;;5108712;28;20435;-62
2020/12/01 00:19:45;;;;;;;8.32;1.85;;;23.00;17.50;;;;;;5103161;28;20135;-62
2020/12/01 00:22:12;;;;;;;13.82;1.88;;;22.90;17.80;;;;;;5089373;28;20057;-56
2020/12/01 00:24:39;;;;;;;15.93;2.58;;;22.70;17.90;;;;;;5107485;28;20076;-58
2020/12/01 00:27:06;;;;;;;15.43;2.90;;;22.70;18.60;;;;;;5090988;28;20069;-54
2020/12/01 00:29:32;;;;;;;10.40;2.22;;;22.60;18.70;;;;;;5108471;28;20072;-60
2020/12/01 00:32:00;;;;;;;10.98;2.92;;;22.40;19.20;;;;;;5107097;28;20487;-55
2020/12/01 00:34:26;;;;;;;13.85;2.92;;;22.30;19.30;;;;;;5090694;28;20435;-57
2020/12/01 00:36:53;;;;;;;32.55;3.92;;;22.20;20.00;;;;;;5107065;28;20091;-57
2020/12/01 00:39:19;;;;;;;87.30;10.05;;;22.10;19.80;;;;;;5105902;28;20103;-62
2020/12/01 00:41:51;;;;;;;60.78;8.88;;;22.00;20.20;;;;;;5108474;28;20080;-57
2020/12/01 00:44:18;;;;;;;30.77;6.38;;;21.80;20.30;;;;;;5109186;28;20548;-58
2020/12/01 00:46:45;;;;;;;52.63;8.15;;;21.70;20.80;;;;;;5110308;28;20084;-59
2020/12/01 00:49:12;;;;;;;24.20;6.00;;;21.60;21.40;;;;;;5112988;28;20558;-57
2020/12/01 00:51:39;;;;;;;35.53;6.28;;;21.40;21.90;;;;;;5110406;28;20125;-54
2020/12/01 00:54:05;;;;;;;28.27;5.90;;;21.30;22.20;;;;;;5110321;27;20101;-58
2020/12/01 00:56:32;;;;;;;22.17;5.30;;;21.20;22.00;;;;;;5110476;28;20083;-58
2020/12/01 00:58:59;;;;;;;33.72;5.63;;;21.10;22.50;;;;;;5108555;28;20068;-58
2020/12/01 01:01:27;;;;;;;40.00;6.00;;;20.90;22.90;;;;;;5106530;27;20123;-58
2020/12/01 01:03:54;;;;;;;20.58;5.00;;;20.80;23.40;;;;;;5107819;28;20579;-59
2020/12/01 01:06:20;;;;;;;19.73;5.72;;;20.70;24.00;;;;;;5110476;28;20175;-55
2020/12/01 01:08:47;;;;;;;23.85;4.55;;;20.50;24.00;;;;;;5112116;28;20589;-53
2020/12/01 01:11:13;;;;;;;29.23;5.43;;;20.40;24.80;;;;;;5108604;28;20080;-57
2020/12/01 01:13:40;;;;;;;29.48;4.97;;;20.20;25.00;;;;;;5096349;28;20083;-57
2020/12/01 01:16:09;;;;;;;27.25;4.40;;;20.10;25.00;;;;;;5112971;27;20173;-56
2020/12/01 01:18:35;;;;;;;27.70;5.03;;;20.00;26.00;;;;;;5106743;28;20069;-57
2020/12/01 01:21:02;;;;;;;25.05;4.38;;;19.90;25.50;;;;;;5110968;28;20552;-58
2020/12/01 01:23:29;;;;;;;30.80;4.38;;;19.80;25.90;;;;;;5111710;27;20072;-55
2020/12/01 01:25:55;;;;;;;38.53;5.15;;;19.70;26.20;;;;;;5111695;27;20083;-53
2020/12/01 01:28:22;;;;;;;;;;;19.60;26.50;;;;;;5092997;28;20124;-59
2020/12/01 01:30:48;;;;;;;18.85;4.10;;;19.40;26.70;;;;;;5109526;28;20050;-58
2020/12/01 01:33:15;;;;;;;30.15;5.05;;;19.40;27.10;;;;;;5104177;28;20075;-56
2020/12/01 01:35:43;;;;;;;36.97;4.32;;;19.30;27.10;;;;;;5110423;28;20516;-56
2020/12/01 01:38:11;;;;;;;28.75;5.35;;;19.20;27.10;;;;;;5107938;27;20067;-57
2020/12/01 01:40:38;;;;;;;36.28;5.40;;;19.10;27.00;;;;;;5109826;28;20092;-55
2020/12/01 01:43:05;;;;;;;44.80;5.40;;;19.00;26.80;;;;;;5108529;28;20503;-57
2020/12/01 01:45:42;;;;;;;43.95;7.22;;;18.90;27.80;;;;;;5108168;28;20079;-57
2020/12/01 01:48:30;;;;;;;40.42;9.18;;;18.80;28.10;;;;;;5108335;28;20104;-60
2020/12/01 01:50:56;;;;;;;;;;;18.70;28.40;;;;;;5112316;27;20076;-58
2020/12/01 01:53:23;;;;;;;46.45;8.57;;;18.60;28.50;;;;;;5106980;27;20801;-57
2020/12/01 01:55:57;;;;;;;53.55;7.50;;;18.50;28.20;;;;;;5110979;27;20131;-56
2020/12/01 01:58:29;;;;;;;39.25;6.72;;;18.40;28.80;;;;;;5111068;28;20115;-58
2020/12/01 02:01:08;;;;;;;34.63;6.50;;;18.30;29.40;;;;;;5090043;28;20113;-58
2020/12/01 02:03:43;;;;;;;43.63;6.05;;;18.30;29.30;;;;;;5083322;28;20571;-58
2020/12/01 02:06:23;;;;;;;32.70;5.53;;;18.20;29.90;;;;;;5092619;28;20159;-59
2020/12/01 02:08:59;;;;;;;35.55;5.60;;;18.10;29.60;;;;;;5089992;28;20152;-57
2020/12/01 02:11:28;;;;;;;29.10;5.07;;;18.00;29.40;;;;;;5089460;28;20184;-54
2020/12/01 02:14:16;;;;;;;32.88;6.63;;;17.90;29.50;;;;;;5088414;28;20540;-56
2020/12/01 02:16:53;;;;;;;34.33;6.70;;;17.80;29.60;;;;;;5090190;28;20064;-56
2020/12/01 02:19:26;;;;;;;36.40;7.93;;;17.70;29.70;;;;;;5089489;28;20068;-59
2020/12/01 02:21:55;;;;;;;47.75;9.20;;;17.70;30.00;;;;;;5090627;28;20174;-56
2020/12/01 02:24:26;;;;;;;37.78;7.80;;;17.60;30.00;;;;;;5091045;28;20080;-53
2020/12/01 02:26:56;;;;;;;29.90;6.85;;;17.60;31.00;;;;;;5089547;28;20069;-55
2020/12/01 02:29:30;;;;;;;45.63;7.50;;;17.50;31.20;;;;;;5090247;28;20076;-53
2020/12/01 02:31:58;;;;;;;31.88;6.90;;;17.40;31.30;;;;;;5090210;28;20114;-56
2020/12/01 02:34:35;;;;;;;32.00;7.18;;;17.40;31.10;;;;;;5091669;28;20171;-60
2020/12/01 02:37:03;;;;;;;39.97;8.18;;;17.30;30.80;;;;;;5089229;28;20122;-58
2020/12/01 02:39:30;;;;;;;41.45;8.05;;;17.20;30.70;;;;;;5090638;28;20559;-59
2020/12/01 02:42:03;;;;;;;44.67;7.78;;;17.10;31.00;;;;;;5090146;28;20077;-55
2020/12/01 02:44:30;;;;;;;42.67;8.10;;;17.00;30.90;;;;;;5091105;28;20068;-55
2020/12/01 02:46:59;;;;;;;;;;;17.00;31.60;;;;;;5091206;28;20073;-54
2020/12/01 02:49:25;;;;;;;41.10;8.27;;;16.90;32.40;;;;;;5087965;28;20030;-57
2020/12/01 02:51:51;;;;;;;;;;;16.90;32.80;;;;;;5089809;28;20164;-55
2020/12/01 02:54:18;;;;;;;46.95;8.05;;;16.80;32.90;;;;;;5089150;28;19956;-59
2020/12/01 02:56:45;;;;;;;;;;;16.80;32.70;;;;;;5093503;28;20131;-64
2020/12/01 02:59:15;;;;;;;47.72;8.88;;;16.70;32.80;;;;;;5090129;28;20018;-59
2020/12/01 03:01:42;;;;;;;50.08;9.15;;;16.60;32.30;;;;;;5115287;27;20115;-59
2020/12/01 03:04:09;;;;;;;37.90;8.30;;;16.60;32.40;;;;;;5112104;27;20060;-58
2020/12/01 03:06:35;;;;;;;54.30;9.30;;;16.50;33.10;;;;;;5108549;27;20068;-57
2020/12/01 03:09:06;;;;;;;37.25;9.38;;;16.50;33.30;;;;;;5112639;27;20528;-56
2020/12/01 03:11:33;;;;;;;54.20;10.30;;;16.40;32.90;;;;;;5105403;28;20112;-56
2020/12/01 03:13:59;;;;;;;57.20;10.73;;;16.30;32.80;;;;;;5111425;27;20588;-58
2020/12/01 03:16:25;;;;;;;;;;;16.30;33.00;;;;;;5111085;27;20447;-57
2020/12/01 03:18:52;;;;;;;44.75;10.10;;;16.30;33.50;;;;;;5114743;27;20006;-54
2020/12/01 03:21:18;;;;;;;;;;;16.20;33.70;;;;;;5109917;28;20117;-55
2020/12/01 03:23:46;;;;;;;58.17;11.93;;;16.10;33.80;;;;;;5111357;27;19967;-57
2020/12/01 03:26:15;;;;;;;50.38;11.02;;;16.00;33.70;;;;;;5113321;27;20114;-55
2020/12/01 03:28:43;;;;;;;60.35;10.25;;;15.90;33.70;;;;;;5110250;28;20072;-60
2020/12/01 03:31:11;;;;;;;65.60;17.05;;;15.90;34.00;;;;;;5112826;27;20392;-56
2020/12/01 03:33:38;;;;;;;93.68;20.92;;;15.90;33.70;;;;;;5112710;27;20526;-58
2020/12/01 03:36:04;;;;;;;;;;;15.90;33.50;;;;;;5114701;27;20668;-57
2020/12/01 03:38:30;;;;;;;92.80;23.00;;;15.90;34.00;;;;;;5109357;28;19963;-56
2020/12/01 03:40:57;;;;;;;101.80;25.67;;;15.90;34.30;;;;;;5114246;27;20161;-59
2020/12/01 03:43:23;;;;;;;;;;;15.80;34.20;;;;;;5116742;27;20074;-56
2020/12/01 03:45:49;;;;;;;104.53;24.55;;;15.80;34.40;;;;;;5109355;28;19963;-56
2020/12/01 03:48:16;;;;;;;103.50;26.17;;;15.80;34.20;;;;;;5108928;28;20076;-58
2020/12/01 03:50:43;;;;;;;109.90;27.80;;;15.80;34.30;;;;;;5108886;28;20547;-55
2020/12/01 03:53:10;;;;;;;111.15;28.38;;;15.70;34.70;;;;;;5113103;27;20524;-59
2020/12/01 03:55:37;;;;;;;100.38;27.90;;;15.70;35.00;;;;;;5110353;27;20087;-58
2020/12/01 03:58:03;;;;;;;;;;;15.70;35.20;;;;;;5109116;28;20072;-54
2020/12/01 04:00:31;;;;;;;111.95;28.30;;;15.60;35.60;;;;;;5094201;28;20049;-59
2020/12/01 04:02:58;;;;;;;104.45;27.42;;;15.60;35.40;;;;;;5114582;28;20068;-58
2020/12/01 04:05:28;;;;;;;102.68;27.52;;;15.60;35.90;;;;;;5117402;28;20489;-60
2020/12/01 04:07:56;;;;;;;108.13;28.20;;;15.50;35.10;;;;;;5113282;28;20420;-59
2020/12/01 04:10:26;;;;;;;111.65;28.83;;;15.50;35.10;;;;;;5109059;28;20083;-58
2020/12/01 04:12:56;;;;;;;118.97;28.00;;;15.40;35.80;;;;;;5109179;28;20069;-59
2020/12/01 04:15:24;;;;;;;111.93;27.80;;;15.40;35.70;;;;;;5114420;28;20074;-56
2020/12/01 04:17:52;;;;;;;118.38;27.30;;;15.40;35.80;;;;;;5110771;28;20068;-59
2020/12/01 04:20:19;;;;;;;116.80;26.65;;;15.40;36.70;;;;;;5106003;28;20121;-59
2020/12/01 04:22:46;;;;;;;96.78;25.15;;;15.30;36.40;;;;;;5113448;28;20072;-58
2020/12/01 04:25:15;;;;;;;89.22;24.05;;;15.30;36.40;;;;;;5111941;27;20080;-58
2020/12/01 04:27:42;;;;;;;88.38;23.60;;;15.30;37.10;;;;;;5114825;27;20080;-60
2020/12/01 04:30:10;;;;;;;107.60;23.88;;;15.30;36.50;;;;;;5117114;27;20147;-58
2020/12/01 04:32:37;;;;;;;102.68;23.70;;;15.20;36.50;;;;;;5111608;28;20111;-59
2020/12/01 04:35:04;;;;;;;102.15;26.15;;;15.20;36.30;;;;;;5112388;28;20556;-57
2020/12/01 04:37:32;;;;;;;89.63;25.63;;;15.20;36.90;;;;;;5113297;28;20092;-54
2020/12/01 04:39:58;;;;;;;97.43;23.90;;;15.10;37.20;;;;;;5111718;28;20096;-54
2020/12/01 04:42:25;;;;;;;;;;;15.00;37.50;;;;;;5115581;27;20080;-57
2020/12/01 04:45:11;;;;;;;90.15;19.60;;;15.00;37.40;;;;;;5115446;27;20319;-55
2020/12/01 04:48:02;;;;;;;84.20;17.87;;;14.90;37.20;;;;;;5113362;27;20064;-53
2020/12/01 04:50:39;;;;;;;88.43;17.85;;;14.90;37.50;;;;;;5110471;27;20915;-58
2020/12/01 04:53:15;;;;;;;78.32;16.95;;;14.90;38.00;;;;;;5118571;27;20176;-56
2020/12/01 04:56:18;;;;;;;82.30;16.02;;;14.90;38.20;;;;;;5113061;27;20162;-57
2020/12/01 04:59:47;;;;;;;85.60;16.77;;;14.90;38.30;;;;;;5115692;27;20068;-56
2020/12/01 05:02:32;;;;;;;87.88;14.48;;;14.80;38.10;;;;;;5048902;28;20123;-58
2020/12/01 05:05:24;;;;;;;54.53;13.90;;;14.70;37.40;;;;;;5109274;27;20092;-54
2020/12/01 05:08:19;;;;;;;73.85;13.80;;;14.70;37.30;;;;;;5115313;27;20136;-55
2020/12/01 05:10:49;;;;;;;67.60;14.38;;;14.60;37.20;;;;;;5104200;28;20072;-55
2020/12/01 05:13:21;;;;;;;67.97;13.43;;;14.60;37.60;;;;;;5116606;27;20072;-55
2020/12/01 05:15:53;;;;;;;61.22;12.55;;;14.70;37.40;;;;;;5114441;27;20064;-56
2020/12/01 05:18:26;;;;;;;63.38;13.65;;;14.60;38.00;;;;;;5113385;27;20072;-58
2020/12/01 05:20:56;;;;;;;75.20;14.40;;;14.60;38.00;;;;;;5119604;27;20089;-60
2020/12/01 05:23:39;;;;;;;56.35;13.07;;;14.50;38.20;;;;;;5115835;27;20144;-56
2020/12/01 05:26:09;;;;;;;66.63;12.43;;;14.50;38.20;;;;;;5115002;27;20132;-54
2020/12/01 05:28:46;;;;;;;57.30;13.43;;;14.40;38.50;;;;;;5120250;27;20108;-57
2020/12/01 05:31:15;;;;;;;55.65;12.05;;;14.40;38.80;;;;;;5118639;27;20072;-60
2020/12/01 05:33:41;;;;;;;51.38;10.65;;;14.40;39.10;;;;;;5116998;27;20076;-59
2020/12/01 05:36:17;;;;;;;;;;;14.30;39.20;;;;;;5110980;28;20068;-58
2020/12/01 05:38:55;;;;;;;47.42;11.45;;;14.30;39.20;;;;;;5119293;27;19956;-57
2020/12/01 05:41:26;;;;;;;55.75;11.38;;;14.30;39.10;;;;;;5115431;27;20140;-57
2020/12/01 05:43:58;;;;;;;49.67;10.50;;;14.30;39.00;;;;;;5121495;27;20072;-58
2020/12/01 05:46:42;;;;;;;49.25;11.05;;;14.30;39.10;;;;;;5112622;28;20111;-57
2020/12/01 05:49:31;;;;;;;52.55;10.93;;;14.20;39.10;;;;;;5111473;28;20106;-57
2020/12/01 05:52:24;;;;;;;56.67;13.43;;;14.10;39.50;;;;;;5116493;27;20084;-56
2020/12/01 05:55:08;;;;;;;58.22;15.27;;;14.10;39.50;;;;;;5106833;27;20462;-57
2020/12/01 05:57:34;;;;;;;54.10;15.23;;;14.10;39.70;;;;;;5112448;28;20167;-56
2020/12/01 06:00:03;;;;;;;;;;;14.10;39.20;;;;;;5116335;27;20108;-55
2020/12/01 06:02:56;;;;;;;57.30;15.25;;;14.10;39.20;;;;;;5109773;28;19956;-58
2020/12/01 06:05:24;;;;;;;51.78;11.40;;;14.10;39.40;;;;;;5070600;27;20095;-57
2020/12/01 06:07:53;;;;;;;61.53;10.68;;;14.10;39.20;;;;;;5119807;27;20118;-57
2020/12/01 06:10:41;;;;;;;49.63;9.88;;;14.00;39.30;;;;;;5112034;28;20579;-57
2020/12/01 06:13:13;;;;;;;40.83;9.20;;;13.90;39.00;;;;;;5094442;28;20096;-55
2020/12/01 06:15:52;;;;;;;42.50;9.73;;;13.90;38.80;;;;;;5109604;28;20516;-58
2020/12/01 06:18:32;;;;;;;56.25;8.75;;;13.80;39.10;;;;;;5115150;27;20080;-56
2020/12/01 06:21:08;;;;;;;42.80;7.82;;;13.80;39.10;;;;;;5111677;28;20123;-59
2020/12/01 06:24:16;;;;;;;43.58;7.65;;;13.80;39.00;;;;;;5101307;28;20546;-58
2020/12/01 06:27:02;;;;;;;41.92;8.20;;;13.70;39.00;;;;;;5067842;27;20088;-59
2020/12/01 06:29:43;;;;;;;41.10;8.25;;;13.60;39.30;;;;;;5118407;27;20088;-58
2020/12/01 06:32:45;;;;;;;31.73;7.40;;;13.60;39.30;;;;;;5113216;27;20088;-58
2020/12/01 06:35:32;;;;;;;36.55;7.47;;;13.60;39.50;;;;;;5110416;28;20063;-56
2020/12/01 06:38:13;;;;;;;38.53;7.82;;;13.50;39.90;;;;;;5111670;27;20077;-55
2020/12/01 06:41:01;;;;;;;27.40;8.05;;;13.40;39.50;;;;;;5109048;28;20557;-60
2020/12/01 06:43:50;;;;;;;35.72;9.02;;;13.40;39.60;;;;;;5117138;27;20516;-58
2020/12/01 06:46:46;;;;;;;37.83;9.02;;;13.40;39.50;;;;;;5109575;28;20584;-58
2020/12/01 06:49:36;;;;;;;38.85;8.75;;;13.40;39.90;;;;;;5111842;27;20550;-57
2020/12/01 06:52:16;;;;;;;52.28;10.20;;;13.30;40.40;;;;;;5110532;27;20096;-55
2020/12/01 06:54:50;;;;;;;65.13;13.30;;;13.20;40.00;;;;;;5110843;27;20076;-60
2020/12/01 06:57:29;;;;;;;66.13;13.73;;;13.10;40.10;;;;;;5110114;28;20082;-58
2020/12/01 06:59:56;;;;;;;72.65;14.73;;;13.10;39.30;;;;;;5109698;28;20207;-58
2020/12/01 07:02:25;;;;;;;58.38;14.88;;;13.10;40.00;;;;;;5109616;28;20120;-59
2020/12/01 07:05:06;;;;;;;80.95;17.85;;;13.10;39.70;;;;;;5115269;27;20068;-58
2020/12/01 07:07:35;;;;;;;73.95;16.58;;;13.10;39.40;;;;;;5106034;28;20077;-57
2020/12/01 07:10:22;;;;;;;85.07;17.38;;;13.10;40.50;;;;;;5110539;27;20114;-56
2020/12/01 07:12:56;;;;;;;74.53;18.08;;;13.10;40.40;;;;;;5114971;27;20072;-58
2020/12/01 07:15:46;;;;;;;78.35;17.15;;;13.10;40.20;;;;;;5109204;28;20135;-56
2020/12/01 07:18:22;;;;;;;91.38;18.52;;;13.00;41.10;;;;;;5091122;28;20076;-54
2020/12/01 07:21:10;;;;;;;80.50;19.58;;;13.00;41.00;;;;;;5110713;27;20084;-57
2020/12/01 07:23:55;;;;;;;80.72;20.95;;;12.90;41.10;;;;;;5114050;27;20072;-56
2020/12/01 07:26:40;;;;;;;106.03;22.70;;;12.90;40.50;;;;;;5109158;27;20167;-58
2020/12/01 07:29:20;;;;;;;123.82;27.70;;;12.90;40.70;;;;;;5096555;28;21519;-58
2020/12/01 07:31:47;;;;;;;112.75;27.58;;;12.70;39.80;;;;;;5109421;28;20102;-60
2020/12/01 07:34:31;;;;;;;122.30;28.55;;;12.70;39.50;;;;;;5098677;28;20118;-58
2020/12/01 07:37:22;;;;;;;149.50;30.73;;;12.70;40.10;;;;;;5079588;28;20076;-60
2020/12/01 07:39:55;;;;;;;121.22;30.27;;;12.60;40.80;;;;;;5112202;27;20567;-60
2020/12/01 07:42:25;;;;;;;131.15;31.45;;;12.60;40.80;;;;;;5095379;28;20083;-56
2020/12/01 07:44:51;;;;;;;121.00;31.20;;;12.60;41.00;;;;;;5111840;27;20076;-60
2020/12/01 07:47:24;;;;;;;156.57;33.13;;;12.60;41.10;;;;;;5111134;28;20092;-58
2020/12/01 07:50:20;;;;;;;153.77;33.30;;;12.60;41.20;;;;;;5111081;28;20080;-60
2020/12/01 07:52:48;;;;;;;157.93;33.67;;;12.60;41.00;;;;;;5098493;28;20591;-57
2020/12/01 07:55:49;;;;;;;146.18;34.55;;;12.60;40.60;;;;;;5109950;28;20084;-60
2020/12/01 07:58:19;;;;;;;149.40;34.33;;;12.50;40.60;;;;;;5099844;27;20088;-60
2020/12/01 08:00:51;;;;;;;147.77;33.33;;;12.50;40.70;;;;;;5111072;28;20116;-60
2020/12/01 08:03:42;;;;;;;139.15;32.70;;;12.40;40.60;;;;;;5112320;28;20607;-59
2020/12/01 08:06:15;;;;;;;130.88;33.25;;;12.50;41.70;;;;;;5109519;28;20092;-58
2020/12/01 08:08:45;;;;;;;160.23;36.10;;;12.50;41.90;;;;;;5115249;28;20072;-56
2020/12/01 08:11:18;;;;;;;153.65;34.67;;;12.40;41.70;;;;;;5111702;28;20550;-57
2020/12/01 08:13:45;;;;;;;135.85;33.53;;;12.30;41.50;;;;;;5094667;28;20071;-59
2020/12/01 08:16:23;;;;;;;137.18;33.88;;;12.30;42.60;;;;;;5111242;28;20088;-58
2020/12/01 08:18:52;;;;;;;143.25;35.40;;;12.30;42.70;;;;;;5099093;28;20076;-60
2020/12/01 08:21:44;;;;;;;150.38;36.53;;;12.30;42.10;;;;;;5114264;28;20096;-59
2020/12/01 08:24:19;;;;;;;143.43;34.63;;;12.20;41.90;;;;;;5111932;28;20091;-56
2020/12/01 08:26:47;;;;;;;166.52;34.45;;;12.30;42.30;;;;;;5110417;28;20068;-58
2020/12/01 08:29:19;;;;;;;136.73;35.70;;;12.20;43.00;;;;;;5099776;28;20129;-55
2020/12/01 08:32:03;;;;;;;138.85;35.38;;;12.20;42.80;;;;;;5111487;28;20079;-58
2020/12/01 08:34:54;;;;;;;128.73;32.95;;;12.20;42.40;;;;;;5109791;28;20432;-55
2020/12/01 08:37:21;;;;;;;121.35;32.85;;;12.20;42.50;;;;;;5113028;28;20071;-57
2020/12/01 08:39:48;;;;;;;;;;;12.10;43.20;;;;;;5111676;28;20107;-59
2020/12/01 08:42:18;;;;;;;155.23;32.57;;;12.10;42.90;;;;;;5111999;28;19966;-54
2020/12/01 08:45:19;;;;;;;151.75;35.60;;;12.10;42.10;;;;;;5109564;28;20105;-57
2020/12/01 08:47:46;;;;;;;157.27;34.97;;;12.10;42.10;;;;;;5128242;27;20081;-58
2020/12/01 08:50:21;;;;;;;;;;;12.10;42.20;;;;;;5114143;28;20076;-56
2020/12/01 08:52:48;;;;;;;155.27;35.60;;;12.10;42.20;;;;;;5110561;28;20472;-57
2020/12/01 08:55:31;;;;;;;146.52;33.63;;;12.10;42.60;;;;;;5101322;28;20102;-56
2020/12/01 08:58:26;;;;;;;126.78;32.03;;;12.00;42.30;;;;;;5110099;28;20146;-58
2020/12/01 09:01:10;;;;;;;140.52;32.53;;;12.00;42.00;;;;;;5109846;28;20115;-59
2020/12/01 09:03:39;;;;;;;133.65;32.85;;;11.90;41.90;;;;;;5099695;28;20126;-56
2020/12/01 09:06:19;;;;;;;126.22;30.13;;;11.90;41.80;;;;;;5112655;28;20068;-58
2020/12/01 09:09:00;;;;;;;131.07;32.25;;;11.90;42.00;;;;;;5111695;28;20175;-55
2020/12/01 09:22:29;;;;;;;132.48;29.85;;;11.90;41.60;;;;;;5119809;27;20067;-56
2020/12/01 09:25:12;;;;;;;126.43;28.38;;;11.90;42.50;;;;;;5103710;28;20160;-58
2020/12/01 09:27:39;;;;;;;127.85;29.13;;;11.90;42.40;;;;;;5112367;27;20076;-55
2020/12/01 09:30:14;;;;;;;104.13;26.90;;;11.90;42.40;;;;;;5113986;27;20083;-54
2020/12/01 09:32:40;;;;;;;113.07;27.65;;;11.90;42.20;;;;;;5113779;27;20072;-58
2020/12/01 09:35:06;;;;;;;;;;;11.80;41.20;;;;;;5099147;28;20177;-56
2020/12/01 09:37:34;;;;;;;88.10;23.65;;;11.80;40.60;;;;;;5113962;27;20010;-56
2020/12/01 09:40:00;;;;;;;92.07;21.75;;;11.80;40.40;;;;;;5113083;27;20099;-58
2020/12/01 09:42:30;;;;;;;;;;;11.80;39.70;;;;;;5114325;27;20190;-59
2020/12/01 09:47:38;;;;;;;77.57;17.63;;;11.80;38.90;;;;;;5112241;27;20098;-56
2020/12/01 09:50:11;;;;;;;71.45;17.85;;;11.70;38.30;;;;;;5116521;27;20063;-58
2020/12/01 10:04:53;;;;;;;47.47;12.70;;;11.70;36.90;;;;;;5111116;28;20440;-59
2020/12/01 10:09:09;;;;;;;50.28;10.30;;;11.50;36.00;;;;;;5110432;28;20086;-59
2020/12/01 10:12:14;;;;;;;45.08;9.48;;;11.60;36.80;;;;;;5110607;27;20440;-56
2020/12/01 10:20:57;;;;;;;25.50;7.25;;;11.60;35.70;;;;;;5114904;27;20092;-55
2020/12/01 10:24:23;;;;;;;26.83;6.57;;;11.60;35.70;;;;;;5113908;27;20086;-57
2020/12/01 10:26:16;;;;;;;27.27;7.47;;;11.50;35.00;;;;;;5112118;27;20067;-56
2020/12/01 10:36:29;;;;;;;29.98;5.93;;;11.50;34.90;;;;;;5111215;28;20080;-58
2020/12/01 10:38:57;;;;;;;;;;;11.40;35.20;;;;;;5114048;27;20108;-56
2020/12/01 10:41:32;;;;;;;24.67;6.53;;;11.40;35.20;;;;;;5114467;27;19999;-56
2020/12/01 10:43:59;;;;;;;20.63;5.53;;;11.40;34.80;;;;;;5112791;27;20107;-56
2020/12/01 10:46:26;;;;;;;35.30;6.38;;;11.40;35.20;;;;;;5110445;28;20160;-58
2020/12/01 10:48:52;;;;;;;26.15;5.90;;;11.40;35.60;;;;;;5109977;28;20555;-57
2020/12/01 10:51:19;;;;;;;19.10;5.47;;;11.30;35.80;;;;;;5115969;27;20080;-61
2020/12/01 10:53:45;;;;;;;;;;;11.30;35.50;;;;;;5115277;27;20086;-59
2020/12/01 10:56:13;;;;;;;24.73;5.43;;;11.30;36.50;;;;;;5111617;27;19965;-57
2020/12/01 10:58:40;;;;;;;19.70;5.63;;;11.10;36.60;;;;;;5111595;27;20082;-57
2020/12/01 11:01:07;;;;;;;18.80;5.20;;;11.10;36.20;;;;;;5112734;27;20168;-56
2020/12/01 11:03:33;;;;;;;;;;;11.10;37.50;;;;;;5111983;27;20067;-58
2020/12/01 11:06:00;;;;;;;24.05;5.38;;;11.00;36.80;;;;;;5109312;28;19987;-57
2020/12/01 11:08:26;;;;;;;27.48;5.70;;;10.90;36.70;;;;;;5111032;27;20077;-58
2020/12/01 11:10:53;;;;;;;;;;;10.90;36.90;;;;;;5111554;27;20133;-56
2020/12/01 11:13:20;;;;;;;32.40;6.00;;;10.90;37.10;;;;;;5111871;27;19956;-58
2020/12/01 11:15:46;;;;;;;17.30;5.18;;;10.90;37.10;;;;;;5109634;28;20559;-57
2020/12/01 11:18:13;;;;;;;26.15;7.10;;;10.90;37.70;;;;;;5108579;28;20103;-55
2020/12/01 11:20:39;;;;;;;;;;;10.90;37.60;;;;;;5111221;27;20152;-55
2020/12/01 11:23:06;;;;;;;35.30;7.90;;;10.80;37.40;;;;;;5112267;27;19960;-59
2020/12/01 11:25:32;;;;;;;;;;;10.80;36.60;;;;;;5097261;28;20086;-60
2020/12/01 11:27:58;;;;;;;45.97;9.93;;;10.80;35.90;;;;;;5109860;27;20369;-58
2020/12/01 11:30:25;;;;;;;42.38;10.23;;;10.70;34.90;;;;;;5095926;27;20109;-57
2020/12/01 11:32:52;;;;;;;38.67;9.65;;;10.80;34.50;;;;;;5098832;28;20212;-59
2020/12/01 11:35:21;;;;;;;43.58;9.55;;;10.80;34.10;;;;;;5110563;27;20583;-57
2020/12/01 11:37:48;;;;;;;35.88;10.25;;;10.80;33.90;;;;;;5112653;27;20504;-58
2020/12/01 11:40:15;;;;;;;38.67;11.40;;;10.80;33.40;;;;;;5111016;27;20092;-56
2020/12/01 11:42:42;;;;;;;35.90;11.15;;;10.90;33.50;;;;;;5112463;27;20460;-58
2020/12/01 11:45:11;;;;;;;41.72;12.18;;;10.90;33.70;;;;;;5102379;28;20064;-57
2020/12/01 11:47:38;;;;;;;48.13;13.18;;;10.80;33.30;;;;;;5114103;27;20113;-59
2020/12/01 11:50:05;;;;;;;;;;;10.80;32.80;;;;;;5112617;27;20076;-59
2020/12/01 11:52:32;;;;;;;37.35;14.77;;;10.80;33.30;;;;;;5109835;28;20299;-60
2020/12/01 11:54:58;;;;;;;;;;;10.80;33.30;;;;;;5116686;27;20083;-58
2020/12/01 11:57:25;;;;;;;52.10;14.85;;;10.80;33.50;;;;;;5109098;28;20056;-55
2020/12/01 11:59:51;;;;;;;44.83;13.98;;;10.80;33.40;;;;;;5109890;28;20107;-58
2020/12/01 12:02:17;;;;;;;;;;;10.80;33.40;;;;;;5110979;28;20165;-55
2020/12/01 12:04:44;;;;;;;50.97;14.23;;;10.80;34.50;;;;;;5134549;27;19960;-59
2020/12/01 12:07:10;;;;;;;;;;;10.80;34.50;;;;;;5110331;28;20079;-58
2020/12/01 12:09:36;;;;;;;43.00;13.27;;;10.80;34.40;;;;;;5110245;28;19972;-57
2020/12/01 12:12:03;;;;;;;46.72;13.77;;;10.80;34.40;;;;;;5109762;28;20083;-59
2020/12/01 12:14:29;;;;;;;;;;;10.70;34.30;;;;;;5110387;28;20065;-60
2020/12/01 12:16:55;;;;;;;47.40;13.45;;;10.70;34.70;;;;;;5108848;28;19964;-58
2020/12/01 12:19:22;;;;;;;;;;;10.60;34.60;;;;;;5111289;28;20152;-55
2020/12/01 12:21:48;;;;;;;44.20;13.73;;;10.60;34.90;;;;;;5110708;28;19976;-58
2020/12/01 12:24:14;;;;;;;;;;;10.50;34.60;;;;;;5113896;28;20076;-59
2020/12/01 12:26:41;;;;;;;51.38;14.43;;;10.50;34.40;;;;;;5111679;28;19960;-60
2020/12/01 12:29:07;;;;;;;52.97;14.90;;;10.50;34.90;;;;;;5110323;28;20077;-60
2020/12/01 12:31:34;;;;;;;;;;;10.50;35.60;;;;;;5100421;28;20116;-59
2020/12/01 12:34:00;;;;;;;43.13;13.23;;;10.50;36.30;;;;;;5111484;28;19962;-59
2020/12/01 12:36:27;;;;;;;49.28;14.80;;;10.40;36.30;;;;;;5113422;28;20152;-58
2020/12/01 12:38:55;;;;;;;50.30;14.10;;;10.40;36.30;;;;;;5109620;28;21056;-60
2020/12/01 12:41:23;;;;;;;42.33;14.40;;;10.30;36.00;;;;;;5109602;28;20111;-60
2020/12/01 12:43:50;;;;;;;43.10;14.10;;;10.30;36.30;;;;;;5111509;28;20080;-56
2020/12/01 12:46:16;;;;;;;43.45;14.05;;;10.30;36.50;;;;;;5114249;27;20082;-60
2020/12/01 12:48:42;;;;;;;;;;;10.30;36.70;;;;;;5115798;27;20436;-58
2020/12/01 12:51:09;;;;;;;46.92;12.85;;;10.20;36.90;;;;;;5113470;27;19963;-56
2020/12/01 12:53:35;;;;;;;;;;;10.30;37.10;;;;;;5113803;27;20083;-58
2020/12/01 12:56:02;;;;;;;53.90;13.80;;;10.20;36.70;;;;;;5117209;27;20007;-58
2020/12/01 12:58:28;;;;;;;;;;;10.20;36.80;;;;;;5114102;27;20124;-60
2020/12/01 13:00:54;;;;;;;44.28;12.35;;;10.20;36.60;;;;;;5115547;27;19983;-55
2020/12/01 13:03:21;;;;;;;38.05;12.75;;;10.10;36.60;;;;;;5114890;27;20076;-59
2020/12/01 13:05:47;;;;;;;;;;;10.10;36.80;;;;;;5114431;27;20587;-56
2020/12/01 13:08:14;;;;;;;35.22;10.90;;;10.10;36.70;;;;;;5115457;27;19981;-55
2020/12/01 13:10:40;;;;;;;;;;;10.10;36.70;;;;;;5116347;27;20155;-60
2020/12/01 13:13:06;;;;;;;32.33;11.23;;;10.20;36.00;;;;;;5115556;27;19956;-60
2020/12/01 13:15:32;;;;;;;;;;;10.20;35.90;;;;;;5112744;28;20101;-55
2020/12/01 13:17:59;;;;;;;26.65;10.27;;;10.10;35.80;;;;;;5114321;27;19956;-55
2020/12/01 13:20:27;;;;;;;;;;;10.10;35.80;;;;;;5117029;27;20084;-58
2020/12/01 13:22:54;;;;;;;34.25;9.93;;;10.20;36.20;;;;;;5116655;27;19963;-55
2020/12/01 13:25:21;;;;;;;41.20;10.38;;;10.10;36.60;;;;;;5101629;28;20079;-58
2020/12/01 13:27:48;;;;;;;32.33;9.68;;;10.20;37.00;;;;;;5112482;27;20159;-58
2020/12/01 13:30:16;;;;;;;;;;;10.20;36.90;;;;;;5112694;27;20071;-56
2020/12/01 13:32:42;;;;;;;36.30;9.70;;;10.10;37.10;;;;;;5116382;27;19956;-57
2020/12/01 13:35:10;;;;;;;33.88;10.50;;;10.10;37.60;;;;;;5115270;27;20076;-59
2020/12/01 13:37:37;;;;;;;38.05;12.05;;;10.10;37.20;;;;;;5110352;28;20079;-55
2020/12/01 13:40:05;;;;;;;;;;;10.00;36.80;;;;;;5114077;27;20072;-59
2020/12/01 13:42:31;;;;;;;;;;;10.00;36.50;;;;;;5115382;27;19987;-58
2020/12/01 13:44:57;;;;;;;42.47;14.27;;;10.00;36.40;;;;;;5113902;27;19964;-56
2020/12/01 13:47:24;;;;;;;;;;;9.90;36.60;;;;;;5111401;28;20581;-57